sensor_id;sensor_type;location;lat;lon;timestamp;P1;durP1;ratioP1;P2;durP2;ratioP2
35306;SDS011;21420;52.196;21.416;2023-10-31T00:00:41;24.50;;;14.40;;
35306;SDS011;21420;52.196;21.416;2023-10-31T00:03:08;26.50;;;14.90;;
35306;SDS011;21420;52.196;21.416;2023-10-31T00:05:34;23.10;;;12.00;;
35306;SDS011;21420;52.196;21.416;2023-10-31T00:08:01;18.50;;;12.30;;
35306;SDS011;21420;52.196;21.416;2023-10-31T00:10:27;23.90;;;11.90;;
35306;SDS011;21420;52.196;21.416;2023-10-31T00:12:54;20.00;;;11.20;;
35306;SDS011;21420;52.196;21.416;2023-10-31T00:15:21;23.20;;;11.60;;
35306;SDS011;21420;52.196;21.416;2023-10-31T00:17:47;16.00;;;9.70;;
35306;SDS011;21420;52.196;21.416;2023-10-31T00:20:14;16.30;;;10.20;;
35306;SDS011;21420;52.196;21.416;2023-10-31T00:22:41;16.70;;;10.10;;
35306;SDS011;21420;52.196;21.416;2023-10-31T00:25:07;17.50;;;10.20;;
35306;SDS011;21420;52.196;21.416;2023-10-31T00:27:34;16.60;;;9.90;;
35306;SDS011;21420;52.196;21.416;2023-10-31T00:30:01;17.40;;;9.90;;
35306;SDS011;21420;52.196;21.416;2023-10-31T00:32:27;14.50;;;10.10;;
35306;SDS011;21420;52.196;21.416;2023-10-31T00:34:54;18.70;;;9.00;;
35306;SDS011;21420;52.196;21.416;2023-10-31T00:37:20;13.80;;;8.80;;
35306;SDS011;21420;52.196;21.416;2023-10-31T00:39:47;16.00;;;10.30;;
35306;SDS011;21420;52.196;21.416;2023-10-31T00:42:14;15.30;;;9.50;;
35306;SDS011;21420;52.196;21.416;2023-10-31T00:44:41;15.80;;;9.90;;
35306;SDS011;21420;52.196;21.416;2023-10-31T00:47:07;13.30;;;9.10;;
35306;SDS011;21420;52.196;21.416;2023-10-31T00:49:34;13.30;;;8.60;;
35306;SDS011;21420;52.196;21.416;2023-10-31T00:52:02;10.30;;;7.90;;
35306;SDS011;21420;52.196;21.416;2023-10-31T00:54:29;13.70;;;9.00;;
35306;SDS011;21420;52.196;21.416;2023-10-31T00:56:55;17.30;;;9.70;;
35306;SDS011;21420;52.196;21.416;2023-10-31T00:59:22;12.80;;;7.90;;
35306;SDS011;21420;52.196;21.416;2023-10-31T01:01:49;13.00;;;9.00;;
35306;SDS011;21420;52.196;21.416;2023-10-31T01:04:16;13.30;;;8.50;;
35306;SDS011;21420;52.196;21.416;2023-10-31T01:06:43;15.20;;;9.10;;
35306;SDS011;21420;52.196;21.416;2023-10-31T01:09:09;12.30;;;7.80;;
35306;SDS011;21420;52.196;21.416;2023-10-31T01:11:38;13.20;;;7.80;;
35306;SDS011;21420;52.196;21.416;2023-10-31T01:14:04;17.00;;;8.20;;
35306;SDS011;21420;52.196;21.416;2023-10-31T01:16:31;16.10;;;8.20;;
35306;SDS011;21420;52.196;21.416;2023-10-31T01:18:57;14.10;;;8.10;;
35306;SDS011;21420;52.196;21.416;2023-10-31T01:21:24;12.60;;;7.90;;
35306;SDS011;21420;52.196;21.416;2023-10-31T01:23:51;13.40;;;8.50;;
35306;SDS011;21420;52.196;21.416;2023-10-31T01:26:18;10.20;;;7.70;;
35306;SDS011;21420;52.196;21.416;2023-10-31T01:28:44;11.10;;;7.80;;
35306;SDS011;21420;52.196;21.416;2023-10-31T01:31:11;14.00;;;8.10;;
35306;SDS011;21420;52.196;21.416;2023-10-31T01:33:37;14.90;;;7.80;;
35306;SDS011;21420;52.196;21.416;2023-10-31T01:36:06;10.60;;;8.00;;
35306;SDS011;21420;52.196;21.416;2023-10-31T01:38:33;14.90;;;7.80;;
35306;SDS011;21420;52.196;21.416;2023-10-31T01:40:59;14.80;;;7.60;;
35306;SDS011;21420;52.196;21.416;2023-10-31T01:43:33;11.20;;;7.80;;
35306;SDS011;21420;52.196;21.416;2023-10-31T01:46:01;12.80;;;7.40;;
35306;SDS011;21420;52.196;21.416;2023-10-31T01:48:29;11.50;;;8.00;;
35306;SDS011;21420;52.196;21.416;2023-10-31T01:50:58;12.50;;;7.40;;
35306;SDS011;21420;52.196;21.416;2023-10-31T01:53:26;11.40;;;7.80;;
35306;SDS011;21420;52.196;21.416;2023-10-31T01:55:56;12.70;;;7.60;;
35306;SDS011;21420;52.196;21.416;2023-10-31T01:58:29;15.80;;;8.40;;
35306;SDS011;21420;52.196;21.416;2023-10-31T02:00:59;12.70;;;8.00;;
35306;SDS011;21420;52.196;21.416;2023-10-31T02:03:27;12.80;;;8.50;;
35306;SDS011;21420;52.196;21.416;2023-10-31T02:05:54;9.80;;;7.60;;
35306;SDS011;21420;52.196;21.416;2023-10-31T02:08:21;14.00;;;8.50;;
35306;SDS011;21420;52.196;21.416;2023-10-31T02:10:49;13.60;;;7.60;;
35306;SDS011;21420;52.196;21.416;2023-10-31T02:13:17;13.70;;;7.30;;
35306;SDS011;21420;52.196;21.416;2023-10-31T02:19:10;13.50;;;7.70;;
35306;SDS011;21420;52.196;21.416;2023-10-31T02:21:41;13.10;;;7.50;;
35306;SDS011;21420;52.196;21.416;2023-10-31T02:24:07;14.80;;;8.10;;
35306;SDS011;21420;52.196;21.416;2023-10-31T02:26:34;15.90;;;8.10;;
35306;SDS011;21420;52.196;21.416;2023-10-31T02:29:01;11.90;;;7.50;;
35306;SDS011;21420;52.196;21.416;2023-10-31T02:31:29;9.90;;;6.90;;
35306;SDS011;21420;52.196;21.416;2023-10-31T02:33:56;13.10;;;7.70;;
35306;SDS011;21420;52.196;21.416;2023-10-31T02:36:22;10.50;;;7.50;;
35306;SDS011;21420;52.196;21.416;2023-10-31T02:38:49;10.10;;;6.80;;
35306;SDS011;21420;52.196;21.416;2023-10-31T02:41:16;17.00;;;8.40;;
35306;SDS011;21420;52.196;21.416;2023-10-31T02:43:43;12.70;;;7.80;;
35306;SDS011;21420;52.196;21.416;2023-10-31T02:46:10;12.50;;;6.90;;
35306;SDS011;21420;52.196;21.416;2023-10-31T02:48:38;13.00;;;8.10;;
35306;SDS011;21420;52.196;21.416;2023-10-31T02:51:06;10.20;;;7.50;;
35306;SDS011;21420;52.196;21.416;2023-10-31T02:53:34;12.40;;;8.10;;
35306;SDS011;21420;52.196;21.416;2023-10-31T02:56:02;14.40;;;7.50;;
35306;SDS011;21420;52.196;21.416;2023-10-31T02:58:29;10.80;;;7.50;;
35306;SDS011;21420;52.196;21.416;2023-10-31T03:00:56;10.80;;;6.80;;
35306;SDS011;21420;52.196;21.416;2023-10-31T03:03:23;11.10;;;7.40;;
35306;SDS011;21420;52.196;21.416;2023-10-31T03:05:49;12.40;;;7.60;;
35306;SDS011;21420;52.196;21.416;2023-10-31T03:08:16;13.80;;;8.20;;
35306;SDS011;21420;52.196;21.416;2023-10-31T03:10:47;11.60;;;6.90;;
35306;SDS011;21420;52.196;21.416;2023-10-31T03:13:20;11.90;;;8.10;;
35306;SDS011;21420;52.196;21.416;2023-10-31T03:15:47;13.40;;;7.50;;
35306;SDS011;21420;52.196;21.416;2023-10-31T03:18:14;17.60;;;7.70;;
35306;SDS011;21420;52.196;21.416;2023-10-31T03:20:44;11.50;;;7.20;;
35306;SDS011;21420;52.196;21.416;2023-10-31T03:23:13;11.40;;;7.60;;
35306;SDS011;21420;52.196;21.416;2023-10-31T03:25:40;11.10;;;7.40;;
35306;SDS011;21420;52.196;21.416;2023-10-31T03:28:19;11.20;;;7.20;;
35306;SDS011;21420;52.196;21.416;2023-10-31T03:30:47;10.20;;;6.30;;
35306;SDS011;21420;52.196;21.416;2023-10-31T03:33:14;13.50;;;7.40;;
35306;SDS011;21420;52.196;21.416;2023-10-31T03:35:43;10.30;;;6.70;;
35306;SDS011;21420;52.196;21.416;2023-10-31T03:38:10;9.40;;;6.20;;
35306;SDS011;21420;52.196;21.416;2023-10-31T03:40:38;14.20;;;6.80;;
35306;SDS011;21420;52.196;21.416;2023-10-31T03:43:05;12.40;;;7.10;;
35306;SDS011;21420;52.196;21.416;2023-10-31T03:45:31;8.90;;;6.60;;
35306;SDS011;21420;52.196;21.416;2023-10-31T03:47:58;11.70;;;6.50;;
35306;SDS011;21420;52.196;21.416;2023-10-31T03:50:25;12.50;;;7.00;;
35306;SDS011;21420;52.196;21.416;2023-10-31T03:52:53;10.90;;;7.00;;
35306;SDS011;21420;52.196;21.416;2023-10-31T03:55:19;11.20;;;7.10;;
35306;SDS011;21420;52.196;21.416;2023-10-31T03:57:46;10.50;;;7.20;;
35306;SDS011;21420;52.196;21.416;2023-10-31T04:00:13;8.40;;;6.10;;
35306;SDS011;21420;52.196;21.416;2023-10-31T04:02:40;10.00;;;6.10;;
35306;SDS011;21420;52.196;21.416;2023-10-31T04:05:07;12.80;;;6.60;;
35306;SDS011;21420;52.196;21.416;2023-10-31T04:07:34;12.20;;;6.80;;
35306;SDS011;21420;52.196;21.416;2023-10-31T04:10:01;9.90;;;6.10;;
35306;SDS011;21420;52.196;21.416;2023-10-31T04:12:29;10.50;;;5.80;;
35306;SDS011;21420;52.196;21.416;2023-10-31T04:14:56;12.10;;;5.90;;
35306;SDS011;21420;52.196;21.416;2023-10-31T04:17:23;9.30;;;6.10;;
35306;SDS011;21420;52.196;21.416;2023-10-31T04:19:49;8.10;;;5.10;;
35306;SDS011;21420;52.196;21.416;2023-10-31T04:22:16;11.10;;;5.70;;
35306;SDS011;21420;52.196;21.416;2023-10-31T04:24:43;10.30;;;5.60;;
35306;SDS011;21420;52.196;21.416;2023-10-31T04:27:09;9.20;;;5.30;;
35306;SDS011;21420;52.196;21.416;2023-10-31T04:29:36;8.20;;;6.50;;
35306;SDS011;21420;52.196;21.416;2023-10-31T04:32:03;17.30;;;6.80;;
35306;SDS011;21420;52.196;21.416;2023-10-31T04:34:30;10.00;;;5.20;;
35306;SDS011;21420;52.196;21.416;2023-10-31T04:36:56;9.90;;;5.20;;
35306;SDS011;21420;52.196;21.416;2023-10-31T04:39:23;6.20;;;4.70;;
35306;SDS011;21420;52.196;21.416;2023-10-31T04:41:50;9.50;;;5.00;;
35306;SDS011;21420;52.196;21.416;2023-10-31T04:44:16;10.10;;;5.10;;
35306;SDS011;21420;52.196;21.416;2023-10-31T04:46:43;8.90;;;5.10;;
35306;SDS011;21420;52.196;21.416;2023-10-31T04:49:10;7.80;;;4.70;;
35306;SDS011;21420;52.196;21.416;2023-10-31T04:51:37;10.50;;;4.80;;
35306;SDS011;21420;52.196;21.416;2023-10-31T04:54:04;7.90;;;5.20;;
35306;SDS011;21420;52.196;21.416;2023-10-31T04:56:31;7.40;;;4.80;;
35306;SDS011;21420;52.196;21.416;2023-10-31T04:58:58;9.20;;;4.90;;
35306;SDS011;21420;52.196;21.416;2023-10-31T05:01:24;9.30;;;4.60;;
35306;SDS011;21420;52.196;21.416;2023-10-31T05:03:51;8.00;;;5.00;;
35306;SDS011;21420;52.196;21.416;2023-10-31T05:06:32;6.10;;;4.70;;
35306;SDS011;21420;52.196;21.416;2023-10-31T05:08:59;11.70;;;5.00;;
35306;SDS011;21420;52.196;21.416;2023-10-31T05:11:26;8.30;;;5.00;;
35306;SDS011;21420;52.196;21.416;2023-10-31T05:13:53;6.30;;;4.80;;
35306;SDS011;21420;52.196;21.416;2023-10-31T05:16:19;9.30;;;5.80;;
35306;SDS011;21420;52.196;21.416;2023-10-31T05:18:46;7.90;;;5.20;;
35306;SDS011;21420;52.196;21.416;2023-10-31T05:21:13;11.30;;;5.60;;
35306;SDS011;21420;52.196;21.416;2023-10-31T05:23:46;12.30;;;6.00;;
35306;SDS011;21420;52.196;21.416;2023-10-31T05:26:13;9.30;;;5.40;;
35306;SDS011;21420;52.196;21.416;2023-10-31T05:28:39;10.00;;;5.00;;
35306;SDS011;21420;52.196;21.416;2023-10-31T05:31:06;10.80;;;5.40;;
35306;SDS011;21420;52.196;21.416;2023-10-31T05:33:32;8.30;;;5.20;;
35306;SDS011;21420;52.196;21.416;2023-10-31T05:35:59;8.10;;;5.00;;
35306;SDS011;21420;52.196;21.416;2023-10-31T05:38:26;8.00;;;5.10;;
35306;SDS011;21420;52.196;21.416;2023-10-31T05:40:52;8.90;;;4.90;;
35306;SDS011;21420;52.196;21.416;2023-10-31T05:43:19;8.80;;;4.60;;
35306;SDS011;21420;52.196;21.416;2023-10-31T05:45:45;9.70;;;5.00;;
35306;SDS011;21420;52.196;21.416;2023-10-31T05:48:12;8.70;;;5.30;;
35306;SDS011;21420;52.196;21.416;2023-10-31T05:50:42;10.50;;;5.70;;
35306;SDS011;21420;52.196;21.416;2023-10-31T05:53:08;10.50;;;5.40;;
35306;SDS011;21420;52.196;21.416;2023-10-31T05:55:38;7.00;;;4.10;;
35306;SDS011;21420;52.196;21.416;2023-10-31T05:58:05;10.00;;;4.70;;
35306;SDS011;21420;52.196;21.416;2023-10-31T06:00:32;8.10;;;4.60;;
35306;SDS011;21420;52.196;21.416;2023-10-31T06:02:59;9.10;;;4.20;;
35306;SDS011;21420;52.196;21.416;2023-10-31T06:05:25;5.90;;;4.90;;
35306;SDS011;21420;52.196;21.416;2023-10-31T06:07:52;8.60;;;4.50;;
35306;SDS011;21420;52.196;21.416;2023-10-31T06:10:19;8.20;;;4.90;;
35306;SDS011;21420;52.196;21.416;2023-10-31T06:12:47;5.50;;;4.40;;
35306;SDS011;21420;52.196;21.416;2023-10-31T06:15:13;7.80;;;4.60;;
35306;SDS011;21420;52.196;21.416;2023-10-31T06:17:40;7.40;;;4.50;;
35306;SDS011;21420;52.196;21.416;2023-10-31T06:20:07;13.20;;;5.10;;
35306;SDS011;21420;52.196;21.416;2023-10-31T06:22:35;9.40;;;4.50;;
35306;SDS011;21420;52.196;21.416;2023-10-31T06:25:04;7.90;;;4.30;;
35306;SDS011;21420;52.196;21.416;2023-10-31T06:27:31;8.10;;;4.40;;
35306;SDS011;21420;52.196;21.416;2023-10-31T06:29:57;11.00;;;4.70;;
35306;SDS011;21420;52.196;21.416;2023-10-31T06:32:44;8.60;;;4.90;;
35306;SDS011;21420;52.196;21.416;2023-10-31T06:35:11;7.60;;;5.00;;
35306;SDS011;21420;52.196;21.416;2023-10-31T06:37:37;7.60;;;4.70;;
35306;SDS011;21420;52.196;21.416;2023-10-31T06:40:04;13.10;;;4.40;;
35306;SDS011;21420;52.196;21.416;2023-10-31T06:42:32;9.70;;;4.40;;
35306;SDS011;21420;52.196;21.416;2023-10-31T06:44:58;6.90;;;4.40;;
35306;SDS011;21420;52.196;21.416;2023-10-31T06:47:25;6.00;;;4.60;;
35306;SDS011;21420;52.196;21.416;2023-10-31T06:49:51;8.50;;;4.50;;
35306;SDS011;21420;52.196;21.416;2023-10-31T06:52:18;8.90;;;3.80;;
35306;SDS011;21420;52.196;21.416;2023-10-31T06:54:45;8.10;;;4.70;;
35306;SDS011;21420;52.196;21.416;2023-10-31T06:57:11;6.70;;;4.20;;
35306;SDS011;21420;52.196;21.416;2023-10-31T06:59:38;6.20;;;3.80;;
35306;SDS011;21420;52.196;21.416;2023-10-31T07:02:04;9.60;;;4.20;;
35306;SDS011;21420;52.196;21.416;2023-10-31T07:04:31;7.80;;;3.90;;
35306;SDS011;21420;52.196;21.416;2023-10-31T07:06:58;6.90;;;4.20;;
35306;SDS011;21420;52.196;21.416;2023-10-31T07:09:25;9.30;;;4.20;;
35306;SDS011;21420;52.196;21.416;2023-10-31T07:11:52;7.70;;;3.90;;
35306;SDS011;21420;52.196;21.416;2023-10-31T07:14:19;7.60;;;4.00;;
35306;SDS011;21420;52.196;21.416;2023-10-31T07:16:47;8.90;;;4.10;;
35306;SDS011;21420;52.196;21.416;2023-10-31T07:19:15;6.30;;;4.10;;
35306;SDS011;21420;52.196;21.416;2023-10-31T07:21:42;8.20;;;4.40;;
35306;SDS011;21420;52.196;21.416;2023-10-31T07:24:09;7.80;;;4.10;;
35306;SDS011;21420;52.196;21.416;2023-10-31T07:26:36;8.20;;;3.80;;
35306;SDS011;21420;52.196;21.416;2023-10-31T07:29:02;5.80;;;3.60;;
35306;SDS011;21420;52.196;21.416;2023-10-31T07:31:29;5.60;;;3.80;;
35306;SDS011;21420;52.196;21.416;2023-10-31T07:33:56;9.50;;;4.30;;
35306;SDS011;21420;52.196;21.416;2023-10-31T07:36:23;7.10;;;3.90;;
35306;SDS011;21420;52.196;21.416;2023-10-31T07:38:49;7.90;;;4.20;;
35306;SDS011;21420;52.196;21.416;2023-10-31T07:41:16;7.90;;;4.10;;
35306;SDS011;21420;52.196;21.416;2023-10-31T07:43:43;6.50;;;3.90;;
35306;SDS011;21420;52.196;21.416;2023-10-31T07:46:09;9.60;;;4.80;;
35306;SDS011;21420;52.196;21.416;2023-10-31T07:48:36;6.40;;;3.70;;
35306;SDS011;21420;52.196;21.416;2023-10-31T07:51:03;8.10;;;4.00;;
35306;SDS011;21420;52.196;21.416;2023-10-31T07:53:29;10.20;;;4.30;;
35306;SDS011;21420;52.196;21.416;2023-10-31T07:55:56;9.30;;;4.30;;
35306;SDS011;21420;52.196;21.416;2023-10-31T07:58:23;7.00;;;4.00;;
35306;SDS011;21420;52.196;21.416;2023-10-31T08:00:49;7.40;;;4.40;;
35306;SDS011;21420;52.196;21.416;2023-10-31T08:03:16;11.30;;;3.90;;
35306;SDS011;21420;52.196;21.416;2023-10-31T08:05:43;6.00;;;4.30;;
35306;SDS011;21420;52.196;21.416;2023-10-31T08:08:10;7.50;;;4.20;;
35306;SDS011;21420;52.196;21.416;2023-10-31T08:10:36;6.50;;;3.70;;
35306;SDS011;21420;52.196;21.416;2023-10-31T08:13:03;8.70;;;4.10;;
35306;SDS011;21420;52.196;21.416;2023-10-31T08:15:29;6.30;;;3.60;;
35306;SDS011;21420;52.196;21.416;2023-10-31T08:17:56;10.50;;;5.00;;
35306;SDS011;21420;52.196;21.416;2023-10-31T08:20:23;7.90;;;4.30;;
35306;SDS011;21420;52.196;21.416;2023-10-31T08:22:49;6.90;;;3.80;;
35306;SDS011;21420;52.196;21.416;2023-10-31T08:25:16;9.50;;;4.30;;
35306;SDS011;21420;52.196;21.416;2023-10-31T08:27:43;5.60;;;3.30;;
35306;SDS011;21420;52.196;21.416;2023-10-31T08:30:10;6.20;;;3.80;;
35306;SDS011;21420;52.196;21.416;2023-10-31T08:32:37;9.20;;;4.20;;
35306;SDS011;21420;52.196;21.416;2023-10-31T08:35:04;8.50;;;4.00;;
35306;SDS011;21420;52.196;21.416;2023-10-31T08:37:31;7.70;;;3.90;;
35306;SDS011;21420;52.196;21.416;2023-10-31T08:39:57;8.50;;;4.60;;
35306;SDS011;21420;52.196;21.416;2023-10-31T08:42:24;10.10;;;4.10;;
35306;SDS011;21420;52.196;21.416;2023-10-31T08:44:51;11.10;;;4.20;;
35306;SDS011;21420;52.196;21.416;2023-10-31T08:47:17;8.50;;;4.30;;
35306;SDS011;21420;52.196;21.416;2023-10-31T08:49:44;9.20;;;4.00;;
35306;SDS011;21420;52.196;21.416;2023-10-31T08:52:11;5.20;;;3.60;;
35306;SDS011;21420;52.196;21.416;2023-10-31T08:54:38;8.10;;;4.50;;
35306;SDS011;21420;52.196;21.416;2023-10-31T08:57:04;9.20;;;4.20;;
35306;SDS011;21420;52.196;21.416;2023-10-31T08:59:31;10.10;;;4.20;;
35306;SDS011;21420;52.196;21.416;2023-10-31T09:01:58;6.60;;;4.40;;
35306;SDS011;21420;52.196;21.416;2023-10-31T09:04:24;7.90;;;4.10;;
35306;SDS011;21420;52.196;21.416;2023-10-31T09:06:51;8.80;;;4.20;;
35306;SDS011;21420;52.196;21.416;2023-10-31T09:09:18;7.90;;;4.00;;
35306;SDS011;21420;52.196;21.416;2023-10-31T09:11:44;5.40;;;4.00;;
35306;SDS011;21420;52.196;21.416;2023-10-31T09:14:11;7.90;;;4.40;;
35306;SDS011;21420;52.196;21.416;2023-10-31T09:16:37;9.00;;;4.60;;
35306;SDS011;21420;52.196;21.416;2023-10-31T09:19:04;11.00;;;4.20;;
35306;SDS011;21420;52.196;21.416;2023-10-31T09:21:31;7.60;;;4.50;;
35306;SDS011;21420;52.196;21.416;2023-10-31T09:23:58;5.70;;;3.80;;
35306;SDS011;21420;52.196;21.416;2023-10-31T09:26:24;6.00;;;3.90;;
35306;SDS011;21420;52.196;21.416;2023-10-31T09:28:52;8.80;;;4.30;;
35306;SDS011;21420;52.196;21.416;2023-10-31T09:31:19;12.50;;;5.20;;
35306;SDS011;21420;52.196;21.416;2023-10-31T09:33:46;6.80;;;4.00;;
35306;SDS011;21420;52.196;21.416;2023-10-31T09:36:13;9.80;;;3.80;;
35306;SDS011;21420;52.196;21.416;2023-10-31T09:38:41;5.40;;;3.90;;
35306;SDS011;21420;52.196;21.416;2023-10-31T09:41:07;9.10;;;4.30;;
35306;SDS011;21420;52.196;21.416;2023-10-31T09:43:34;6.70;;;4.20;;
35306;SDS011;21420;52.196;21.416;2023-10-31T09:46:01;6.40;;;4.20;;
35306;SDS011;21420;52.196;21.416;2023-10-31T09:48:28;10.80;;;4.90;;
35306;SDS011;21420;52.196;21.416;2023-10-31T09:50:55;8.70;;;4.70;;
35306;SDS011;21420;52.196;21.416;2023-10-31T09:53:23;9.60;;;5.10;;
35306;SDS011;21420;52.196;21.416;2023-10-31T09:55:50;9.20;;;4.80;;
35306;SDS011;21420;52.196;21.416;2023-10-31T09:58:18;7.20;;;3.70;;
35306;SDS011;21420;52.196;21.416;2023-10-31T10:00:44;7.20;;;4.40;;
35306;SDS011;21420;52.196;21.416;2023-10-31T10:03:11;8.10;;;3.60;;
35306;SDS011;21420;52.196;21.416;2023-10-31T10:05:39;6.20;;;3.70;;
35306;SDS011;21420;52.196;21.416;2023-10-31T10:08:10;5.40;;;3.40;;
35306;SDS011;21420;52.196;21.416;2023-10-31T10:10:39;8.00;;;4.00;;
35306;SDS011;21420;52.196;21.416;2023-10-31T10:13:05;8.10;;;4.20;;
35306;SDS011;21420;52.196;21.416;2023-10-31T10:15:53;6.20;;;3.60;;
35306;SDS011;21420;52.196;21.416;2023-10-31T10:18:27;7.90;;;4.00;;
35306;SDS011;21420;52.196;21.416;2023-10-31T10:20:55;5.80;;;3.70;;
35306;SDS011;21420;52.196;21.416;2023-10-31T10:23:26;6.30;;;3.20;;
35306;SDS011;21420;52.196;21.416;2023-10-31T10:25:55;7.60;;;3.40;;
35306;SDS011;21420;52.196;21.416;2023-10-31T10:28:23;5.30;;;3.50;;
35306;SDS011;21420;52.196;21.416;2023-10-31T10:30:55;6.30;;;3.70;;
35306;SDS011;21420;52.196;21.416;2023-10-31T10:33:22;6.90;;;3.40;;
35306;SDS011;21420;52.196;21.416;2023-10-31T10:35:49;6.90;;;3.70;;
35306;SDS011;21420;52.196;21.416;2023-10-31T10:38:17;5.10;;;3.50;;
35306;SDS011;21420;52.196;21.416;2023-10-31T10:40:45;6.70;;;3.50;;
35306;SDS011;21420;52.196;21.416;2023-10-31T10:43:20;6.80;;;3.00;;
35306;SDS011;21420;52.196;21.416;2023-10-31T10:45:52;6.10;;;3.20;;
35306;SDS011;21420;52.196;21.416;2023-10-31T10:48:23;4.20;;;3.30;;
35306;SDS011;21420;52.196;21.416;2023-10-31T10:51:05;5.90;;;3.80;;
35306;SDS011;21420;52.196;21.416;2023-10-31T10:53:51;4.80;;;3.20;;
35306;SDS011;21420;52.196;21.416;2023-10-31T10:56:33;6.30;;;3.40;;
35306;SDS011;21420;52.196;21.416;2023-10-31T10:59:08;7.00;;;3.40;;
35306;SDS011;21420;52.196;21.416;2023-10-31T11:01:40;5.70;;;3.10;;
35306;SDS011;21420;52.196;21.416;2023-10-31T11:04:07;4.90;;;3.00;;
35306;SDS011;21420;52.196;21.416;2023-10-31T11:06:35;5.50;;;3.40;;
35306;SDS011;21420;52.196;21.416;2023-10-31T11:09:04;8.10;;;3.80;;
35306;SDS011;21420;52.196;21.416;2023-10-31T11:11:32;5.70;;;3.10;;
35306;SDS011;21420;52.196;21.416;2023-10-31T11:14:00;8.30;;;3.30;;
35306;SDS011;21420;52.196;21.416;2023-10-31T11:16:44;6.60;;;3.20;;
35306;SDS011;21420;52.196;21.416;2023-10-31T11:19:18;4.80;;;2.50;;
35306;SDS011;21420;52.196;21.416;2023-10-31T11:21:55;4.00;;;3.10;;
35306;SDS011;21420;52.196;21.416;2023-10-31T11:24:36;6.80;;;3.40;;
35306;SDS011;21420;52.196;21.416;2023-10-31T11:27:05;8.70;;;3.20;;
35306;SDS011;21420;52.196;21.416;2023-10-31T11:29:32;5.30;;;2.90;;
35306;SDS011;21420;52.196;21.416;2023-10-31T11:32:01;8.20;;;3.30;;
35306;SDS011;21420;52.196;21.416;2023-10-31T11:34:28;6.80;;;3.50;;
35306;SDS011;21420;52.196;21.416;2023-10-31T11:42:47;6.80;;;3.50;;
35306;SDS011;21420;52.196;21.416;2023-10-31T11:45:35;6.30;;;3.50;;
35306;SDS011;21420;52.196;21.416;2023-10-31T11:48:03;9.20;;;3.40;;
35306;SDS011;21420;52.196;21.416;2023-10-31T11:50:31;7.90;;;3.40;;
35306;SDS011;21420;52.196;21.416;2023-10-31T11:53:00;8.80;;;3.40;;
35306;SDS011;21420;52.196;21.416;2023-10-31T11:55:34;7.70;;;3.60;;
35306;SDS011;21420;52.196;21.416;2023-10-31T12:00:50;7.00;;;3.50;;
35306;SDS011;21420;52.196;21.416;2023-10-31T12:03:20;5.80;;;3.00;;
35306;SDS011;21420;52.196;21.416;2023-10-31T12:05:54;6.00;;;3.10;;
35306;SDS011;21420;52.196;21.416;2023-10-31T12:11:13;5.10;;;3.20;;
35306;SDS011;21420;52.196;21.416;2023-10-31T12:14:00;8.50;;;5.90;;
35306;SDS011;21420;52.196;21.416;2023-10-31T12:16:32;5.70;;;2.80;;
35306;SDS011;21420;52.196;21.416;2023-10-31T12:19:04;4.80;;;3.20;;
35306;SDS011;21420;52.196;21.416;2023-10-31T12:21:45;4.20;;;2.80;;
35306;SDS011;21420;52.196;21.416;2023-10-31T12:24:17;6.30;;;2.70;;
35306;SDS011;21420;52.196;21.416;2023-10-31T12:26:45;16.70;;;12.40;;
35306;SDS011;21420;52.196;21.416;2023-10-31T12:29:17;19.60;;;15.40;;
35306;SDS011;21420;52.196;21.416;2023-10-31T12:31:46;6.90;;;4.70;;
35306;SDS011;21420;52.196;21.416;2023-10-31T12:34:15;5.40;;;3.40;;
35306;SDS011;21420;52.196;21.416;2023-10-31T12:36:45;4.90;;;3.40;;
35306;SDS011;21420;52.196;21.416;2023-10-31T12:39:13;4.30;;;2.90;;
35306;SDS011;21420;52.196;21.416;2023-10-31T12:49:13;5.30;;;3.30;;
35306;SDS011;21420;52.196;21.416;2023-10-31T12:52:03;7.70;;;3.00;;
35306;SDS011;21420;52.196;21.416;2023-10-31T12:54:32;5.40;;;3.80;;
35306;SDS011;21420;52.196;21.416;2023-10-31T12:57:01;8.10;;;3.90;;
35306;SDS011;21420;52.196;21.416;2023-10-31T13:01:58;3.10;;;2.50;;
35306;SDS011;21420;52.196;21.416;2023-10-31T13:04:27;3.90;;;2.40;;
35306;SDS011;21420;52.196;21.416;2023-10-31T13:06:58;2.50;;;1.60;;
35306;SDS011;21420;52.196;21.416;2023-10-31T13:09:36;3.70;;;2.10;;
35306;SDS011;21420;52.196;21.416;2023-10-31T13:12:06;3.50;;;1.60;;
35306;SDS011;21420;52.196;21.416;2023-10-31T13:14:34;2.50;;;1.30;;
35306;SDS011;21420;52.196;21.416;2023-10-31T13:17:03;2.90;;;1.60;;
35306;SDS011;21420;52.196;21.416;2023-10-31T13:19:30;4.10;;;1.40;;
35306;SDS011;21420;52.196;21.416;2023-10-31T13:21:57;3.60;;;1.60;;
35306;SDS011;21420;52.196;21.416;2023-10-31T13:24:23;4.50;;;1.20;;
35306;SDS011;21420;52.196;21.416;2023-10-31T13:26:50;2.90;;;1.40;;
35306;SDS011;21420;52.196;21.416;2023-10-31T13:29:21;1.90;;;1.30;;
35306;SDS011;21420;52.196;21.416;2023-10-31T13:31:52;1.50;;;1.30;;
35306;SDS011;21420;52.196;21.416;2023-10-31T13:34:19;2.30;;;1.60;;
35306;SDS011;21420;52.196;21.416;2023-10-31T13:36:46;2.40;;;2.00;;
35306;SDS011;21420;52.196;21.416;2023-10-31T13:39:15;2.00;;;1.60;;
35306;SDS011;21420;52.196;21.416;2023-10-31T13:41:41;2.60;;;1.60;;
35306;SDS011;21420;52.196;21.416;2023-10-31T13:44:08;3.70;;;1.70;;
35306;SDS011;21420;52.196;21.416;2023-10-31T13:46:34;2.80;;;1.60;;
35306;SDS011;21420;52.196;21.416;2023-10-31T13:49:01;2.90;;;1.60;;
35306;SDS011;21420;52.196;21.416;2023-10-31T13:51:29;1.50;;;1.40;;
35306;SDS011;21420;52.196;21.416;2023-10-31T13:53:55;2.80;;;1.50;;
35306;SDS011;21420;52.196;21.416;2023-10-31T13:56:23;1.70;;;1.20;;
35306;SDS011;21420;52.196;21.416;2023-10-31T13:58:49;3.30;;;1.30;;
35306;SDS011;21420;52.196;21.416;2023-10-31T14:01:16;1.80;;;1.40;;
35306;SDS011;21420;52.196;21.416;2023-10-31T14:03:43;3.70;;;2.00;;
35306;SDS011;21420;52.196;21.416;2023-10-31T14:06:11;1.80;;;1.50;;
35306;SDS011;21420;52.196;21.416;2023-10-31T14:08:39;2.90;;;1.70;;
35306;SDS011;21420;52.196;21.416;2023-10-31T14:11:05;2.70;;;1.30;;
35306;SDS011;21420;52.196;21.416;2023-10-31T14:13:32;1.60;;;1.30;;
35306;SDS011;21420;52.196;21.416;2023-10-31T14:15:58;3.00;;;1.40;;
35306;SDS011;21420;52.196;21.416;2023-10-31T14:18:25;6.60;;;1.40;;
35306;SDS011;21420;52.196;21.416;2023-10-31T14:20:51;2.20;;;1.40;;
35306;SDS011;21420;52.196;21.416;2023-10-31T14:23:18;2.20;;;1.50;;
35306;SDS011;21420;52.196;21.416;2023-10-31T14:25:45;2.60;;;1.60;;
35306;SDS011;21420;52.196;21.416;2023-10-31T14:28:11;4.70;;;1.90;;
35306;SDS011;21420;52.196;21.416;2023-10-31T14:30:38;3.50;;;1.30;;
35306;SDS011;21420;52.196;21.416;2023-10-31T14:33:05;1.30;;;1.20;;
35306;SDS011;21420;52.196;21.416;2023-10-31T14:35:32;4.00;;;1.40;;
35306;SDS011;21420;52.196;21.416;2023-10-31T14:37:58;2.10;;;1.70;;
35306;SDS011;21420;52.196;21.416;2023-10-31T14:40:25;4.50;;;2.70;;
35306;SDS011;21420;52.196;21.416;2023-10-31T14:42:52;7.00;;;4.10;;
35306;SDS011;21420;52.196;21.416;2023-10-31T14:45:18;5.70;;;3.20;;
35306;SDS011;21420;52.196;21.416;2023-10-31T14:47:45;31.20;;;14.30;;
35306;SDS011;21420;52.196;21.416;2023-10-31T14:50:12;16.40;;;8.00;;
35306;SDS011;21420;52.196;21.416;2023-10-31T14:52:38;34.60;;;16.60;;
35306;SDS011;21420;52.196;21.416;2023-10-31T14:55:07;54.20;;;27.20;;
35306;SDS011;21420;52.196;21.416;2023-10-31T14:57:35;48.80;;;23.40;;